Latest Weather Observations for Hughenden

IDQ60801

Issued at 5:02 am EST Monday 25 May 2015 (issued every 30 minutes, with the page automatically refreshed every 10 minutes)

About weather observations | Map of weather stations | Latest weather observations for QLD | Other Formats
Station Details ID: 030022 Name: HUGHENDEN AIRPORT Lat: -20.82 Lon: 144.23 Height: 316.4 m
Data from the previous 72 hours. | See also: Recent months at Hughenden
Date/Time
EST
Temp
°C
App
Temp
°C
Dew
Point
Rel
Hum
%
Delta-T
°C
Wind Press
QNH
hPa
Press
MSL
hPa
Rain
since 9 am
mm
Dir
 
Spd
km/h
Gust
km/h
Spd
kts
Gust
kts
25/05:00am 19.6 16.1 13.3 67 3.6 E 24 30 13 16 1021.9 1020.8 0.0
25/04:30am 20.2 16.4 13.6 66 3.8 E 26 44 14 24 1021.8 1020.6 0.0
25/04:00am 20.3 15.3 14.0 67 3.7 ENE 33 46 18 25 1021.8 1020.6 0.0
25/03:30am 20.3 16.3 14.0 67 3.7 E 28 39 15 21 1021.6 1020.4 0.0
25/03:00am 19.8 16.9 14.0 69 3.4 E 22 32 12 17 1021.7 1020.5 0.0
25/02:30am 19.0 17.4 13.8 72 3.0 E 15 20 8 11 1022.1 1021.0 0.0
25/02:00am 19.4 17.0 13.8 70 3.2 E 19 24 10 13 1022.1 1021.0 0.0
25/01:30am 19.4 16.0 13.8 70 3.3 ENE 24 33 13 18 1021.9 1020.8 0.0
25/01:00am 19.6 15.9 13.8 69 3.4 E 26 35 14 19 1021.8 1020.6 0.0
25/12:30am 19.6 16.6 13.8 69 3.4 E 22 30 12 16 1022.1 1021.0 0.0
25/12:00am 19.6 17.0 13.8 69 3.4 E 20 30 11 16 1022.3 1021.2 0.0
 
Date/Time
EST
Temp
°C
App
Temp
°C
Dew
Point
Rel
Hum
%
Delta-T
°C
Wind Press
QNH
hPa
Press
MSL
hPa
Rain
since 9 am
mm
Dir
 
Spd
km/h
Gust
km/h
Spd
kts
Gust
kts
24/11:30pm 19.4 16.9 13.6 69 3.4 E 19 24 10 13 1022.5 1021.4 0.0
24/11:00pm 19.8 17.3 13.5 67 3.6 ENE 19 22 10 12 1022.8 1021.7 0.0
24/10:30pm 20.0 16.9 13.5 66 3.8 E 22 33 12 18 1022.5 1021.4 0.0
24/10:00pm 20.0 16.4 13.0 64 4.0 ENE 24 32 13 17 1022.4 1021.3 0.0
24/09:30pm 20.1 17.0 12.3 61 4.4 E 20 28 11 15 1022.6 1021.5 0.0
24/09:00pm 20.1 17.1 12.1 60 4.5 E 19 26 10 14 1022.6 1021.5 0.0
24/08:30pm 20.5 17.5 12.5 60 4.6 E 20 28 11 15 1022.3 1021.2 0.0
24/08:00pm 20.6 17.6 12.6 60 4.6 ENE 20 28 11 15 1021.9 1020.8 0.0
24/07:30pm 21.0 18.1 12.4 58 4.9 ENE 19 24 10 13 1021.7 1020.5 0.0
24/07:00pm 21.5 17.7 12.4 56 5.2 E 24 35 13 19 1021.3 1020.1 0.0
24/06:30pm 22.2 18.1 12.7 55 5.5 ENE 26 37 14 20 1020.8 1019.6 0.0
24/06:00pm 22.6 17.6 12.3 52 5.9 ENE 30 43 16 23 1020.4 1019.2 0.0
24/05:30pm 23.3 17.9 12.3 50 6.3 E 32 43 17 23 1020.1 1018.9 0.0
24/05:00pm 24.0 18.4 12.0 47 6.9 E 33 43 18 23 1019.5 1018.4 0.0
24/04:30pm 24.7 19.1 11.6 44 7.5 E 32 43 17 23 1019.4 1018.3 0.0
24/04:00pm 25.8 20.1 11.2 40 8.4 E 32 43 17 23 1018.7 1017.5 0.0
24/03:30pm 26.4 21.3 10.5 37 9.0 E 28 39 15 21 1018.7 1017.5 0.0
24/03:00pm 26.2 20.8 10.8 38 8.8 E 30 43 16 23 1018.8 1017.6 0.0
24/02:30pm 26.3 21.2 10.5 37 9.0 E 28 39 15 21 1018.9 1017.7 0.0
24/02:00pm 26.1 20.6 9.0 34 9.4 ENE 28 39 15 21 1019.1 1018.0 0.0
24/01:48pm 26.2 20.8 9.5 35 9.3 ENE 28 46 15 25 1019.2 1018.1 0.0
24/01:30pm 25.6 20.1 9.0 35 9.2 ENE 28 37 15 20 1019.6 1018.5 0.0
24/01:00pm 25.2 19.4 9.5 37 8.7 ENE 30 41 16 22 1020.1 1018.9 0.0
24/12:30pm 24.4 19.5 9.9 40 8.1 E 26 43 14 23 1020.8 1019.6 0.0
24/12:18pm 24.5 18.6 10.4 41 7.9 ENE 32 50 17 27 1021.2 1020.0 0.0
24/12:00pm 24.9 18.5 10.7 40 8.0 ENE 35 46 19 25 1021.3 1020.1 0.0
24/11:39am 23.9 17.3 9.9 41 7.8 ENE 35 56 19 30 1021.4 1020.2 0.0
24/11:30am 23.8 17.5 9.8 41 7.8 ENE 33 46 18 25 1021.5 1020.3 0.0
24/11:00am 23.0 17.0 10.1 44 7.1 E 32 46 17 25 1021.5 1020.3 0.0
24/10:30am 22.4 15.9 10.2 46 6.7 ENE 35 46 19 25 1021.9 1020.8 0.0
24/10:00am 20.8 14.5 8.8 46 6.4 ENE 32 48 17 26 1022.1 1021.0 0.0
24/09:30am 19.9 13.3 8.6 48 6.0 E 33 48 18 26 1022.2 1021.1 0.0
24/09:00am 18.8 12.2 7.9 49 5.6 E 32 46 17 25 1022.0 1020.9 0.0
24/08:30am 17.0 11.6 6.2 49 5.4 E 24 32 13 17 1022.0 1020.9 0.0
24/08:00am 15.7 10.8 5.0 49 5.1 E 20 26 11 14 1021.8 1020.6 0.0
24/07:30am 14.3 9.4 4.3 51 4.7 E 19 26 10 14 1021.5 1020.3 0.0
24/07:00am 12.9 8.8 4.3 56 4.0 E 15 17 8 9 1021.1 1019.9 0.0
24/06:30am 12.4 8.5 3.6 55 4.0 E 13 15 7 8 1020.8 1019.6 0.0
24/06:00am 13.7 9.1 3.8 51 4.6 E 17 22 9 12 1020.6 1019.4 0.0
24/05:30am 14.0 9.0 3.8 50 4.7 E 19 24 10 13 1020.2 1019.0 0.0
24/05:00am 14.3 8.3 3.5 48 5.0 E 24 32 13 17 1019.9 1018.8 0.0
24/04:30am 12.6 8.3 3.0 52 4.3 E 15 20 8 11 1019.9 1018.8 0.0
24/04:00am 12.2 8.1 2.4 51 4.3 ESE 13 15 7 8 1020.2 1019.0 0.0
24/03:30am 12.9 8.4 2.2 48 4.7 ESE 15 17 8 9 1020.3 1019.1 0.0
24/03:00am 13.5 9.0 2.4 47 4.9 ESE 15 19 8 10 1019.9 1018.8 0.0
24/02:30am 12.9 8.4 1.9 47 4.8 ESE 15 17 8 9 1020.2 1019.0 0.0
24/02:00am 12.6 8.8 1.6 47 4.8 E 11 13 6 7 1020.5 1019.3 0.0
24/01:30am 12.4 8.4 0.8 45 5.0 ESE 11 13 6 7 1020.6 1019.4 0.0
24/01:00am 12.9 9.0 1.3 45 5.0 E 11 13 6 7 1020.5 1019.3 0.0
24/12:30am 12.4 8.3 -0.1 42 5.2 ESE 11 13 6 7 1020.8 1019.6 0.0
24/12:00am 14.0 9.6 0.3 39 5.9 ESE 13 17 7 9 1020.7 1019.5 0.0
 
Date/Time
EST
Temp
°C
App
Temp
°C
Dew
Point
Rel
Hum
%
Delta-T
°C
Wind Press
QNH
hPa
Press
MSL
hPa
Rain
since 9 am
mm
Dir
 
Spd
km/h
Gust
km/h
Spd
kts
Gust
kts
23/11:30pm 14.3 9.5 0.2 38 6.0 ESE 15 15 8 8 1020.9 1019.7 0.0
23/11:00pm 14.4 9.8 -1.2 34 6.5 ESE 13 15 7 8 1020.9 1019.7 0.0
23/10:30pm 15.0 10.0 -1.1 33 6.8 ESE 15 17 8 9 1020.9 1019.7 0.0
23/10:00pm 15.5 10.1 -1.5 31 7.1 ESE 17 19 9 10 1020.7 1019.5 0.0
23/09:30pm 15.7 10.3 -1.4 31 7.2 ESE 17 19 9 10 1020.7 1019.5 0.0
23/09:00pm 15.2 10.5 -1.8 31 7.0 ESE 13 15 7 8 1020.8 1019.6 0.0
23/08:30pm 15.8 11.0 -2.2 29 7.4 SE 13 15 7 8 1020.7 1019.5 0.0
23/08:00pm 16.0 11.3 -2.0 29 7.5 SE 13 13 7 7 1020.5 1019.3 0.0
23/07:30pm 16.4 12.0 -2.6 27 7.8 SE 11 13 6 7 1020.1 1018.9 0.0
23/07:00pm 17.6 13.2 -2.1 26 8.3 SE 11 13 6 7 1019.6 1018.5 0.0
23/06:30pm 19.6 14.9 -1.5 24 9.2 SE 13 17 7 9 1019.2 1018.1 0.0
23/06:00pm 20.7 15.6 -1.8 22 9.8 SE 15 20 8 11 1019.1 1018.0 0.0
23/05:30pm 22.1 16.2 -1.9 20 10.6 ESE 19 26 10 14 1018.7 1017.5 0.0
23/05:00pm 23.0 16.6 -1.8 19 11.0 ESE 22 30 12 16 1018.5 1017.3 0.0
23/04:30pm 23.5 17.4 -2.2 18 11.4 ESE 20 28 11 15 1018.3 1017.1 0.0
23/04:00pm 24.1 18.1 -1.7 18 11.6 SE 20 28 11 15 1018.3 1017.1 0.0
23/03:30pm 24.0 17.9 -2.5 17 11.7 ESE 20 30 11 16 1018.2 1017.0 0.0
23/03:00pm 24.1 18.1 -1.7 18 11.6 ESE 20 30 11 16 1018.1 1016.9 0.0
23/02:30pm 23.8 17.9 -0.5 20 11.1 SE 20 30 11 16 1018.6 1017.4 0.0
23/02:00pm 23.5 17.3 -0.1 21 10.9 ESE 22 35 12 19 1019.0 1017.8 0.0
23/01:30pm 22.5 15.8 -0.9 21 10.5 ESE 24 37 13 20 1019.3 1018.2 0.0
23/01:00pm 22.3 16.1 -0.4 22 10.3 ESE 22 33 12 18 1019.9 1018.8 0.0
23/12:30pm 21.9 15.8 0.4 24 9.9 ESE 22 35 12 19 1020.9 1019.7 0.0
23/12:00pm 21.1 14.7 0.9 26 9.3 ESE 24 37 13 20 1021.2 1020.0 0.0
23/11:30am 20.5 14.6 1.4 28 8.9 ESE 22 35 12 19 1021.7 1020.5 0.0
23/11:00am 19.0 12.6 1.1 30 8.1 E 24 32 13 17 1022.1 1021.0 0.0
23/10:30am 18.2 11.2 1.7 33 7.6 E 28 44 15 24 1022.3 1021.2 0.0
23/10:00am 17.1 10.1 1.9 36 6.9 ESE 28 35 15 19 1022.7 1021.6 0.0
23/09:30am 16.3 9.3 2.0 38 6.5 ESE 28 39 15 21 1022.9 1021.8 0.0
23/09:00am 14.8 8.2 2.0 42 5.7 ESE 26 33 14 18 1022.8 1021.7 0.0
23/08:30am 13.8 8.0 2.1 45 5.2 ESE 22 32 12 17 1022.6 1021.5 0.0
23/08:00am 12.6 6.8 2.2 49 4.6 ESE 22 32 12 17 1022.3 1021.2 0.0
23/07:30am 11.1 6.9 1.9 53 4.0 ESE 13 15 7 8 1022.4 1021.3 0.0
23/07:00am 9.7 5.9 1.6 57 3.4 ESE 11 17 6 9 1022.1 1021.0 0.0
23/06:30am 10.2 6.3 1.3 54 3.8 ESE 11 15 6 8 1022.0 1020.9 0.0
23/06:00am 10.8 6.2 1.4 52 4.0 ESE 15 20 8 11 1021.4 1020.2 0.0
23/05:30am 10.5 7.0 1.1 52 4.0 E 9 13 5 7 1021.1 1019.9 0.0
23/05:00am 10.7 6.7 0.7 50 4.2 ESE 11 13 6 7 1021.0 1019.8 0.0
23/04:30am 11.8 7.5 0.9 47 4.6 ESE 13 17 7 9 1020.7 1019.5 0.0
23/04:00am 11.7 7.4 0.8 47 4.6 SE 13 19 7 10 1020.9 1019.7 0.0
23/03:30am 12.0 7.6 0.5 45 4.9 SE 13 17 7 9 1020.9 1019.7 0.0
23/03:00am 12.6 7.1 0.7 44 5.1 SE 19 24 10 13 1020.6 1019.4 0.0
23/02:30am 12.1 7.3 0.2 44 5.0 SE 15 19 8 10 1020.9 1019.7 0.0
23/02:00am 12.0 7.5 -0.2 43 5.1 SE 13 17 7 9 1021.2 1020.0 0.0
23/01:30am 12.4 7.5 -0.5 41 5.4 SSE 15 19 8 10 1021.6 1020.4 0.0
23/01:00am 11.7 6.8 -0.4 43 5.0 SSE 15 17 8 9 1021.8 1020.6 0.0
23/12:30am 9.4 4.9 -3.2 41 4.8 SSE 11 13 6 7 1021.9 1020.8 0.0
23/12:00am 10.2 6.2 -2.4 41 4.9 SSE 9 11 5 6 1022.4 1021.3 0.0
 
Date/Time
EST
Temp
°C
App
Temp
°C
Dew
Point
Rel
Hum
%
Delta-T
°C
Wind Press
QNH
hPa
Press
MSL
hPa
Rain
since 9 am
mm
Dir
 
Spd
km/h
Gust
km/h
Spd
kts
Gust
kts
22/11:30pm 9.9 5.5 -2.7 41 4.8 S 11 13 6 7 1022.5 1021.4 0.0
22/11:00pm 10.4 6.4 -2.3 41 4.9 SSE 9 11 5 6 1022.5 1021.4 0.0
22/10:30pm 10.8 6.6 -3.7 36 5.5 SSE 9 11 5 6 1022.6 1021.5 0.0
22/10:00pm 11.7 7.5 -3.6 34 5.8 SSE 9 11 5 6 1022.5 1021.4 0.0
22/09:30pm 12.8 8.3 -3.0 33 6.2 S 11 13 6 7 1022.5 1021.4 0.0
22/09:00pm 13.7 8.9 -2.3 33 6.4 S 13 15 7 8 1022.4 1021.3 0.0
22/08:30pm 14.0 9.6 -2.4 32 6.6 S 11 13 6 7 1022.1 1021.0 0.0
22/08:00pm 14.8 10.1 -2.1 31 6.9 S 13 13 7 7 1021.8 1020.6 0.0
22/07:30pm 15.5 11.0 -2.9 28 7.5 S 11 13 6 7 1021.5 1020.3 0.0
22/07:00pm 16.6 12.2 -2.5 27 7.9 S 11 13 6 7 1021.2 1020.0 0.0
22/06:30pm 17.8 13.8 -2.5 25 8.5 S 9 11 5 6 1020.9 1019.7 0.0
22/06:00pm 19.5 15.1 -2.8 22 9.4 S 11 15 6 8 1020.5 1019.3 0.0
22/05:30pm 21.2 15.6 -2.6 20 10.3 S 17 24 9 13 1020.2 1019.0 0.0
22/05:00pm 22.2 16.6 -3.2 18 10.9 S 17 24 9 13 1019.9 1018.8 0.0
22/04:30pm 22.8 16.5 -4.3 16 11.5 S 20 26 11 14 1019.8 1018.7 0.0
22/04:00pm 23.5 17.6 -2.2 18 11.4 S 19 28 10 15 1019.7 1018.6 0.0
22/03:30pm 23.4 17.6 -1.5 19 11.2 S 19 28 10 15 1019.7 1018.6 0.0
22/03:00pm 23.2 17.4 -1.7 19 11.1 SE 19 30 10 16 1019.8 1018.7 0.0
22/02:30pm 23.1 18.5 -1.1 20 10.9 SSW 13 22 7 12 1019.8 1018.7 0.0
22/02:00pm 22.9 17.2 -0.6 21 10.7 S 19 28 10 15 1020.2 1019.0 0.0
22/01:30pm 22.9 18.7 1.8 25 10.0 S 13 28 7 15 1020.6 1019.4 0.0
22/01:00pm 21.8 17.5 3.0 29 9.1 SSE 15 24 8 13 1021.2 1020.0 0.0
22/12:30pm 21.8 18.5 4.4 32 8.6 SE 11 24 6 13 1021.7 1020.5 0.0
22/12:00pm 20.5 16.0 4.1 34 8.0 ESE 17 28 9 15 1022.2 1021.1 0.0
22/11:30am 20.3 15.5 4.4 35 7.8 SSE 19 28 10 15 1022.7 1021.6 0.0
22/11:00am 19.5 14.7 4.8 38 7.2 SSE 19 30 10 16 1023.2 1022.1 0.0
22/10:30am 20.0 15.1 5.3 38 7.3 SE 20 32 11 17 1023.6 1022.4 0.0
22/10:00am 18.5 13.6 5.0 41 6.6 SSE 20 30 11 16 1023.8 1022.6 0.0
22/09:30am 18.1 13.3 5.7 44 6.2 SSE 20 30 11 16 1023.7 1022.5 0.0
22/09:00am 17.2 12.4 5.8 47 5.6 SSE 20 30 11 16 1023.6 1022.4 -
22/08:30am 16.2 12.1 6.1 51 5.0 SSE 17 20 9 11 1023.4 1022.2 -
22/08:00am 14.9 12.0 6.7 58 4.0 SSE 11 15 6 8 1023.2 1022.1 -
22/07:30am 13.6 11.1 6.7 63 3.4 S 9 11 5 6 1022.9 1021.8 -
22/07:00am 13.0 10.2 6.8 66 3.0 S 11 17 6 9 1022.4 1021.3 -
22/06:30am 13.3 10.5 7.1 66 3.1 S 11 15 6 8 1022.3 1021.2 -
22/06:00am 13.7 10.5 7.0 64 3.3 S 13 17 7 9 1022.1 1021.0 -
22/05:30am 14.2 10.8 7.5 64 3.4 S 15 20 8 11 1021.7 1020.5 -

Other Formats:

Comma delimited format used in spreadsheet applications
http://www.bom.gov.au/fwo/IDQ60801/IDQ60801.94343.axf

JavaScript Object Notation format (JSON) in row-major order
http://www.bom.gov.au/fwo/IDQ60801/IDQ60801.94343.json